createdAt,value
2024-02-12T00:00:32.953Z,98354.91
2024-02-12T00:01:36.955Z,98354.13
2024-02-12T00:02:40.692Z,98362.38
2024-02-12T00:03:43.127Z,98356.88
2024-02-12T00:04:51.140Z,98361.56
2024-02-12T00:05:53.811Z,98365.44
2024-02-12T00:06:59.947Z,98355.53
2024-02-12T00:08:05.884Z,98361.03
2024-02-12T00:09:08.294Z,98358.28
2024-02-12T00:10:14.602Z,98359.38
2024-02-12T00:11:17.070Z,98360.22
2024-02-12T00:12:19.464Z,98356.63
2024-02-12T00:13:23.293Z,98355.00
2024-02-12T00:14:25.740Z,98363.25
2024-02-12T00:15:28.597Z,98366.00
2024-02-12T00:16:31.127Z,98364.38
2024-02-12T00:17:33.671Z,98357.75
2024-02-12T00:18:36.412Z,98356.94
2024-02-12T00:19:39.185Z,98368.75
2024-02-12T00:20:42.697Z,98362.97
2024-02-12T00:21:46.922Z,98356.94
2024-02-12T00:22:50.724Z,98362.44
2024-02-12T00:23:54.402Z,98365.19
2024-02-12T00:24:58.067Z,98364.66
2024-02-12T00:26:01.127Z,98361.91
2024-02-12T00:27:04.702Z,98365.50
2024-02-12T00:28:09.024Z,98365.50
2024-02-12T00:29:14.739Z,98365.50
2024-02-12T00:30:17.222Z,98363.84
2024-02-12T00:31:19.544Z,98369.34
2024-02-12T00:32:22.548Z,98368.53
2024-02-12T00:33:25.551Z,98371.28
2024-02-12T00:34:29.820Z,98372.91
2024-02-12T00:35:33.457Z,98374.84
2024-02-12T00:36:35.838Z,98373.22
2024-02-12T00:37:39.321Z,98371.28
2024-02-12T00:38:41.699Z,98369.66
2024-02-12T00:39:44.079Z,98367.72
2024-02-12T00:40:46.541Z,98372.09
2024-02-12T00:41:51.089Z,98373.22
2024-02-12T00:42:56.120Z,98374.03
2024-02-12T00:43:58.747Z,98377.59
2024-02-12T00:45:01.516Z,98384.22
2024-02-12T00:46:03.864Z,98377.59
2024-02-12T00:47:06.337Z,98386.16
2024-02-12T00:48:09.593Z,98383.09
2024-02-12T00:49:13.122Z,98379.56
2024-02-12T00:50:16.634Z,98386.66
2024-02-12T00:51:19.001Z,98385.88
2024-02-12T00:52:24.871Z,98385.31
2024-02-12T00:53:27.380Z,98384.53
2024-02-12T00:54:31.476Z,98385.06
2024-02-12T00:55:34.253Z,98379.56
2024-02-12T00:56:38.805Z,98383.41
2024-02-12T00:57:41.649Z,98379.56
2024-02-12T00:58:46.318Z,98382.31
2024-02-12T00:59:51.257Z,98386.16
2024-02-12T01:00:53.599Z,98379.81
2024-02-12T01:01:56.463Z,98380.66
2024-02-12T01:02:58.764Z,98376.25
2024-02-12T01:04:01.079Z,98379.00
2024-02-12T01:05:03.526Z,98381.78
2024-02-12T01:06:06.075Z,98384.53
2024-02-12T01:07:08.350Z,98390.84
2024-02-12T01:08:10.986Z,98390.03
2024-02-12T01:09:14.427Z,98388.91
2024-02-12T01:10:17.801Z,98396.06
2024-02-12T01:11:20.146Z,98382.56
2024-02-12T01:12:24.948Z,98389.72
2024-02-12T01:13:28.418Z,98389.72
2024-02-12T01:14:30.865Z,98393.31
2024-02-12T01:15:33.243Z,98396.88
2024-02-12T01:16:35.740Z,98384.22
2024-02-12T01:17:42.572Z,98389.72
2024-02-12T01:18:47.365Z,98394.41
2024-02-12T01:19:52.516Z,98389.72
2024-02-12T01:20:55.145Z,98388.63
2024-02-12T01:21:57.570Z,98390.56
2024-02-12T01:23:00.066Z,98391.38
2024-02-12T01:24:03.222Z,98386.66
2024-02-12T01:25:06.025Z,98387.81
2024-02-12T01:26:09.738Z,98391.38
2024-02-12T01:27:14.355Z,98385.88
2024-02-12T01:28:16.856Z,98387.50
2024-02-12T01:29:19.353Z,98388.63
2024-02-12T01:30:21.641Z,98388.63
2024-02-12T01:31:23.986Z,98393.00
2024-02-12T01:32:27.410Z,98392.19
2024-02-12T01:33:31.954Z,98390.25
2024-02-12T01:34:36.198Z,98390.25
2024-02-12T01:35:39.890Z,98384.75
2024-02-12T01:36:42.959Z,98387.50
2024-02-12T01:37:45.277Z,98388.63
2024-02-12T01:38:47.593Z,98388.63
2024-02-12T01:39:50.693Z,98385.88
2024-02-12T01:40:53.054Z,98384.75
2024-02-12T01:41:57.105Z,98382.81
2024-02-12T01:42:59.444Z,98384.75
2024-02-12T01:44:02.937Z,98390.75
2024-02-12T01:45:13.958Z,98386.41
2024-02-12T01:46:16.875Z,98390.25
2024-02-12T01:47:25.083Z,98388.31
2024-02-12T01:48:31.815Z,98385.56
2024-02-12T01:49:34.605Z,98382.00
2024-02-12T01:50:37.468Z,98384.44
2024-02-12T01:51:41.722Z,98387.50
2024-02-12T01:52:50.859Z,98382.81
2024-02-12T01:53:54.855Z,98390.75
2024-02-12T01:55:02.240Z,98389.97
2024-02-12T01:56:07.952Z,98391.91
2024-02-12T01:57:11.124Z,98391.59
2024-02-12T01:58:17.737Z,98388.00
2024-02-12T01:59:22.296Z,98394.66
2024-02-12T02:00:27.214Z,98387.22
2024-02-12T02:01:44.983Z,98387.50
2024-02-12T02:02:48.032Z,98385.56
2024-02-12T02:03:52.382Z,98395.75
2024-02-12T02:04:55.399Z,98391.91
2024-02-12T02:05:58.290Z,98392.19
2024-02-12T02:07:00.701Z,98383.91
2024-02-12T02:08:03.222Z,98387.50
2024-02-12T02:09:08.232Z,98397.41
2024-02-12T02:10:10.927Z,98385.88
2024-02-12T02:11:13.563Z,98399.31
2024-02-12T02:12:16.619Z,98402.06
2024-02-12T02:13:18.953Z,98394.13
2024-02-12T02:14:21.473Z,98400.44
2024-02-12T02:15:23.905Z,98393.00
2024-02-12T02:16:26.444Z,98399.31
2024-02-12T02:17:28.844Z,98400.16
2024-02-12T02:18:32.743Z,98400.16
2024-02-12T02:19:35.665Z,98396.06
2024-02-12T02:20:38.290Z,98393.81
2024-02-12T02:21:40.748Z,98399.31
2024-02-12T02:22:43.108Z,98393.81
2024-02-12T02:23:45.711Z,98386.41
2024-02-12T02:24:48.095Z,98397.41
2024-02-12T02:25:51.134Z,98389.16
2024-02-12T02:26:54.420Z,98394.66
2024-02-12T02:27:56.996Z,98392.41
2024-02-12T02:29:00.571Z,98396.28
2024-02-12T02:30:09.786Z,98389.97
2024-02-12T02:31:12.230Z,98389.16
2024-02-12T02:32:15.371Z,98401.19
2024-02-12T02:33:18.376Z,98391.31
2024-02-12T02:34:20.920Z,98390.50
2024-02-12T02:35:23.394Z,98394.06
2024-02-12T02:36:25.861Z,98386.91
2024-02-12T02:37:28.219Z,98393.75
2024-02-12T02:38:30.850Z,98388.56
2024-02-12T02:39:33.282Z,98396.00
2024-02-12T02:40:36.373Z,98396.81
2024-02-12T02:41:44.082Z,98388.56
2024-02-12T02:42:48.344Z,98390.50
2024-02-12T02:43:51.227Z,98398.75
2024-02-12T02:44:55.451Z,98399.56
2024-02-12T02:46:00.817Z,98397.63
2024-02-12T02:47:04.183Z,98396.50
2024-02-12T02:48:07.846Z,98408.34
2024-02-12T02:49:12.189Z,98397.09
2024-02-12T02:50:14.602Z,98397.09
2024-02-12T02:51:24.919Z,98400.97
2024-02-12T02:52:27.576Z,98407.28
2024-02-12T02:53:30.140Z,98405.34
2024-02-12T02:54:34.994Z,98400.66
2024-02-12T02:55:37.371Z,98404.25
2024-02-12T02:56:39.926Z,98405.06
2024-02-12T02:57:42.300Z,98401.78
2024-02-12T02:58:44.617Z,98409.75
2024-02-12T02:59:48.178Z,98405.88
2024-02-12T03:00:50.624Z,98409.97
2024-02-12T03:01:53.352Z,98407.81
2024-02-12T03:02:55.778Z,98402.31
2024-02-12T03:03:58.933Z,98404.75
2024-02-12T03:05:02.795Z,98402.31
2024-02-12T03:06:06.730Z,98411.09
2024-02-12T03:07:12.110Z,98407.50
2024-02-12T03:08:15.576Z,98406.72
2024-02-12T03:09:18.075Z,98412.22
2024-02-12T03:10:20.429Z,98411.38
2024-02-12T03:11:27.271Z,98413.84
2024-02-12T03:12:32.373Z,98409.97
2024-02-12T03:13:38.455Z,98416.59
2024-02-12T03:14:41.747Z,98413.00
2024-02-12T03:15:45.413Z,98418.22
2024-02-12T03:16:47.727Z,98416.59
2024-02-12T03:17:50.206Z,98421.81
2024-02-12T03:18:53.833Z,98419.63
2024-02-12T03:19:57.611Z,98422.91
2024-02-12T03:20:59.952Z,98418.53
2024-02-12T03:22:02.268Z,98421.28
2024-02-12T03:23:04.787Z,98429.53
2024-02-12T03:24:07.145Z,98416.88
2024-02-12T03:25:12.460Z,98424.88
2024-02-12T03:26:18.616Z,98422.13
2024-02-12T03:27:21.849Z,98419.34
2024-02-12T03:28:24.140Z,98430.38
2024-02-12T03:29:28.117Z,98423.22
2024-02-12T03:30:30.704Z,98426.47
2024-02-12T03:31:32.960Z,98431.97
2024-02-12T03:32:36.142Z,98436.38
2024-02-12T03:33:38.728Z,98432.53
2024-02-12T03:34:41.311Z,98431.72
2024-02-12T03:35:43.817Z,98427.00
2024-02-12T03:36:47.225Z,98429.78
2024-02-12T03:37:49.548Z,98428.13
2024-02-12T03:38:51.870Z,98424.25
2024-02-12T03:39:54.431Z,98427.81
2024-02-12T03:40:56.738Z,98433.63
2024-02-12T03:41:59.051Z,98436.91
2024-02-12T03:43:05.888Z,98432.53
2024-02-12T03:44:11.377Z,98430.56
2024-02-12T03:45:16.998Z,98434.97
2024-02-12T03:46:22.416Z,98436.91
2024-02-12T03:47:39.835Z,98439.38
2024-02-12T03:49:00.929Z,98440.47
2024-02-12T03:50:21.940Z,98431.41
2024-02-12T03:51:49.758Z,98436.91
2024-02-12T03:53:27.420Z,98439.13
2024-02-12T03:54:48.249Z,98444.63
2024-02-12T03:56:09.220Z,98443.00
2024-02-12T03:57:30.312Z,98448.50
2024-02-12T03:58:51.250Z,98451.25
2024-02-12T03:59:54.522Z,98444.13
2024-02-12T04:00:57.042Z,98449.34
2024-02-12T04:02:00.879Z,98456.25
2024-02-12T04:03:03.887Z,98447.69
2024-02-12T04:04:08.071Z,98455.94
2024-02-12T04:05:10.856Z,98462.56
2024-02-12T04:06:14.133Z,98459.28
2024-02-12T04:07:17.141Z,98460.09
2024-02-12T04:08:19.457Z,98460.09
2024-02-12T04:09:22.432Z,98462.84
2024-02-12T04:10:28.225Z,98463.66
2024-02-12T04:11:30.871Z,98462.84
2024-02-12T04:12:34.381Z,98476.31
2024-02-12T04:13:38.337Z,98468.91
2024-02-12T04:14:44.160Z,98469.16
2024-02-12T04:15:46.769Z,98477.97
2024-02-12T04:16:53.384Z,98471.13
2024-02-12T04:17:55.884Z,98476.31
2024-02-12T04:18:58.358Z,98475.50
2024-02-12T04:20:01.179Z,98473.88
2024-02-12T04:21:10.906Z,98479.91
2024-02-12T04:22:16.116Z,98477.16
2024-02-12T04:23:20.641Z,98482.66
2024-02-12T04:24:24.778Z,98477.72
2024-02-12T04:25:27.347Z,98473.06
2024-02-12T04:26:29.883Z,98481.00
2024-02-12T04:27:34.859Z,98484.28
2024-02-12T04:28:41.299Z,98488.69
2024-02-12T04:29:43.797Z,98482.38
2024-02-12T04:30:46.482Z,98477.66
2024-02-12T04:31:49.457Z,98491.44
2024-02-12T04:32:51.755Z,98487.03
2024-02-12T04:33:54.773Z,98482.66
2024-02-12T04:34:57.864Z,98485.13
2024-02-12T04:36:02.962Z,98492.25
2024-02-12T04:37:08.021Z,98490.63
2024-02-12T04:38:10.608Z,98490.63
2024-02-12T04:39:16.136Z,98494.19
2024-02-12T04:40:18.754Z,98493.38
2024-02-12T04:41:21.274Z,98486.75
2024-02-12T04:42:23.794Z,98489.50
2024-02-12T04:43:26.235Z,98494.19
2024-02-12T04:44:28.649Z,98497.78
2024-02-12T04:45:32.233Z,98510.41
2024-02-12T04:46:37.916Z,98506.84
2024-02-12T04:47:41.183Z,98498.56
2024-02-12T04:48:44.127Z,98493.06
2024-02-12T04:49:46.614Z,98498.56
2024-02-12T04:50:49.124Z,98503.78
2024-02-12T04:51:54.369Z,98500.53
2024-02-12T04:52:57.987Z,98508.47
2024-02-12T04:54:00.994Z,98502.13
2024-02-12T04:55:03.391Z,98504.88
2024-02-12T04:56:07.790Z,98508.47
2024-02-12T04:57:10.145Z,98504.88
2024-02-12T04:58:12.618Z,98507.38
2024-02-12T04:59:19.916Z,98503.78
2024-02-12T05:00:22.426Z,98499.38
2024-02-12T05:01:28.133Z,98504.63
2024-02-12T05:02:33.384Z,98510.13
2024-02-12T05:03:37.630Z,98510.13
2024-02-12T05:04:40.149Z,98508.78
2024-02-12T05:05:43.489Z,98512.88
2024-02-12T05:06:47.229Z,98514.50
2024-02-12T05:07:49.619Z,98517.25
2024-02-12T05:08:52.562Z,98512.03
2024-02-12T05:09:55.340Z,98503.78
2024-02-12T05:10:58.602Z,98516.75
2024-02-12T05:12:01.049Z,98515.63
2024-02-12T05:13:03.443Z,98516.75
2024-02-12T05:14:05.848Z,98519.50
2024-02-12T05:15:10.855Z,98518.66
2024-02-12T05:16:15.247Z,98517.53
2024-02-12T05:17:25.200Z,98511.22
2024-02-12T05:18:46.478Z,98512.88
2024-02-12T05:20:07.735Z,98516.44
2024-02-12T05:21:32.500Z,98517.53
2024-02-12T05:22:35.402Z,98511.53
2024-02-12T05:23:38.651Z,98507.66
2024-02-12T05:24:40.968Z,98514.28
2024-02-12T05:25:44.994Z,98517.84
2024-02-12T05:26:47.679Z,98524.47
2024-02-12T05:27:50.172Z,98515.38
2024-02-12T05:28:53.297Z,98515.38
2024-02-12T05:29:58.665Z,98520.06
2024-02-12T05:31:00.971Z,98521.47
2024-02-12T05:32:03.409Z,98515.97
2024-02-12T05:33:07.961Z,98520.66
2024-02-12T05:34:10.406Z,98521.47
2024-02-12T05:35:13.766Z,98523.94
2024-02-12T05:36:18.865Z,98531.38
2024-02-12T05:37:21.241Z,98521.19
2024-02-12T05:38:23.942Z,98529.97
2024-02-12T05:39:26.687Z,98528.91
2024-02-12T05:40:28.995Z,98532.47
2024-02-12T05:41:31.357Z,98532.47
2024-02-12T05:42:33.759Z,98536.06
2024-02-12T05:43:36.536Z,98540.47
2024-02-12T05:44:39.498Z,98535.75
2024-02-12T05:45:42.506Z,98535.75
2024-02-12T05:46:46.320Z,98529.44
2024-02-12T05:47:49.177Z,98534.41
2024-02-12T05:48:51.683Z,98537.97
2024-02-12T05:49:54.984Z,98537.97
2024-02-12T05:50:58.451Z,98538.81
2024-02-12T05:52:00.831Z,98543.47
2024-02-12T05:53:04.185Z,98535.22
2024-02-12T05:54:06.666Z,98548.41
2024-02-12T05:55:09.339Z,98545.97
2024-02-12T05:56:11.848Z,98546.78
2024-02-12T05:57:15.732Z,98545.13
2024-02-12T05:58:18.105Z,98548.72
2024-02-12T05:59:21.086Z,98549.53
2024-02-12T06:00:23.663Z,98548.97
2024-02-12T06:01:26.749Z,98544.03
2024-02-12T06:02:29.197Z,98549.28
2024-02-12T06:03:32.120Z,98556.97
2024-02-12T06:04:34.525Z,98551.75
2024-02-12T06:05:37.522Z,98551.22
2024-02-12T06:06:41.444Z,98548.78
2024-02-12T06:07:43.894Z,98551.22
2024-02-12T06:08:46.258Z,98551.22
2024-02-12T06:09:48.901Z,98552.88
2024-02-12T06:10:51.440Z,98558.66
2024-02-12T06:11:55.037Z,98560.28
2024-02-12T06:12:58.643Z,98563.03
2024-02-12T06:14:01.124Z,98560.28
2024-02-12T06:15:03.619Z,98567.75
2024-02-12T06:16:06.176Z,98559.47
2024-02-12T06:17:09.938Z,98561.41
2024-02-12T06:18:12.401Z,98570.50
2024-02-12T06:19:14.859Z,98574.06
2024-02-12T06:20:17.278Z,98577.66
2024-02-12T06:21:19.676Z,98581.19
2024-02-12T06:22:22.097Z,98577.66
2024-02-12T06:23:26.481Z,98579.56
2024-02-12T06:24:28.942Z,98576.00
2024-02-12T06:25:31.302Z,98579.56
2024-02-12T06:26:34.944Z,98583.16
2024-02-12T06:27:37.483Z,98586.72
2024-02-12T06:28:41.813Z,98595.50
2024-02-12T06:29:45.388Z,98602.13
2024-02-12T06:30:47.776Z,98590.25
2024-02-12T06:31:50.119Z,98590.25
2024-02-12T06:32:52.609Z,98598.53
2024-02-12T06:33:55.467Z,98590.81
2024-02-12T06:34:57.909Z,98604.03
2024-02-12T06:36:03.556Z,98597.72
2024-02-12T06:37:05.967Z,98601.28
2024-02-12T06:38:08.397Z,98609.84
2024-02-12T06:39:10.749Z,98598.00
2024-02-12T06:40:14.459Z,98600.75
2024-02-12T06:41:16.904Z,98609.84
2024-02-12T06:42:19.250Z,98609.03
2024-02-12T06:43:21.743Z,98613.69
2024-02-12T06:44:24.591Z,98614.22
2024-02-12T06:45:26.854Z,98614.22
2024-02-12T06:46:29.197Z,98614.22
2024-02-12T06:47:32.004Z,98613.69
2024-02-12T06:48:34.539Z,98623.59
2024-02-12T06:49:36.903Z,98619.75
2024-02-12T06:50:39.568Z,98616.16
2024-02-12T06:51:42.223Z,98616.44
2024-02-12T06:52:45.404Z,98617.28
2024-02-12T06:53:47.735Z,98618.94
2024-02-12T06:54:50.346Z,98624.44
2024-02-12T06:55:54.039Z,98618.09
2024-02-12T06:56:56.395Z,98624.44
2024-02-12T06:57:58.728Z,98620.84
2024-02-12T06:59:01.061Z,98624.13
2024-02-12T07:00:04.938Z,98629.34
2024-02-12T07:01:07.373Z,98630.16
2024-02-12T07:02:10.634Z,98633.44
2024-02-12T07:03:13.328Z,98634.81
2024-02-12T07:04:15.972Z,98630.94
2024-02-12T07:05:19.821Z,98632.28
2024-02-12T07:06:23.680Z,98634.75
2024-02-12T07:07:26.057Z,98632.53
2024-02-12T07:08:28.431Z,98636.66
2024-02-12T07:09:30.717Z,98638.28
2024-02-12T07:10:33.119Z,98643.50
2024-02-12T07:11:35.894Z,98641.88
2024-02-12T07:12:39.982Z,98640.50
2024-02-12T07:13:43.527Z,98641.88
2024-02-12T07:14:46.279Z,98644.66
2024-02-12T07:15:48.660Z,98643.50
2024-02-12T07:16:51.295Z,98637.19
2024-02-12T07:17:53.852Z,98649.00
2024-02-12T07:18:56.629Z,98649.59
2024-02-12T07:19:59.114Z,98647.41
2024-02-12T07:21:01.495Z,98649.00
2024-02-12T07:22:04.613Z,98647.91
2024-02-12T07:23:07.716Z,98646.25
2024-02-12T07:24:10.971Z,98658.91
2024-02-12T07:25:13.380Z,98659.47
2024-02-12T07:26:15.776Z,98663.63
2024-02-12T07:27:21.275Z,98667.19
2024-02-12T07:28:23.579Z,98666.88
2024-02-12T07:29:25.915Z,98668.53
2024-02-12T07:30:28.387Z,98666.88
2024-02-12T07:31:30.963Z,98670.47
2024-02-12T07:32:34.004Z,98678.75
2024-02-12T07:33:37.788Z,98683.13
2024-02-12T07:34:40.645Z,98688.34
2024-02-12T07:35:45.075Z,98680.38
2024-02-12T07:36:47.585Z,98685.31
2024-02-12T07:37:50.583Z,98684.75
2024-02-12T07:38:52.905Z,98681.44
2024-02-12T07:39:55.316Z,98688.59
2024-02-12T07:40:57.718Z,98685.00
2024-02-12T07:42:01.190Z,98688.59
2024-02-12T07:43:03.943Z,98688.59
2024-02-12T07:44:06.528Z,98689.94
2024-02-12T07:45:12.303Z,98687.19
2024-02-12T07:46:16.088Z,98683.31
2024-02-12T07:47:20.626Z,98685.78
2024-02-12T07:48:23.457Z,98695.38
2024-02-12T07:49:25.922Z,98688.25
2024-02-12T07:50:28.688Z,98696.22
2024-02-12T07:51:31.103Z,98698.69
2024-02-12T07:52:34.015Z,98689.31
2024-02-12T07:53:36.795Z,98697.56
2024-02-12T07:54:41.982Z,98698.09
2024-02-12T07:55:44.334Z,98698.63
2024-02-12T07:56:49.754Z,98703.59
2024-02-12T07:57:52.060Z,98698.63
2024-02-12T07:58:55.079Z,98706.09
2024-02-12T08:00:01.021Z,98711.81
2024-02-12T08:01:03.447Z,98718.44
2024-02-12T08:02:05.824Z,98718.44
2024-02-12T08:03:08.193Z,98713.47
2024-02-12T08:04:10.605Z,98713.47
2024-02-12T08:05:13.830Z,98719.81
2024-02-12T08:06:16.910Z,98718.66
2024-02-12T08:07:22.460Z,98715.91
2024-02-12T08:08:27.194Z,98720.88
2024-02-12T08:09:30.606Z,98723.63
2024-02-12T08:10:33.117Z,98731.03
2024-02-12T08:11:35.477Z,98727.72
2024-02-12T08:12:37.843Z,98731.28
2024-02-12T08:13:41.229Z,98732.13
2024-02-12T08:14:44.063Z,98736.50
2024-02-12T08:15:46.409Z,98741.72
2024-02-12T08:16:48.790Z,98738.16
2024-02-12T08:17:54.418Z,98732.63
2024-02-12T08:18:58.471Z,98734.28
2024-02-12T08:20:05.738Z,98738.69
2024-02-12T08:21:08.300Z,98737.56
2024-02-12T08:22:11.746Z,98738.41
2024-02-12T08:23:14.469Z,98742.50
2024-02-12T08:24:18.428Z,98742.22
2024-02-12T08:25:21.679Z,98740.25
2024-02-12T08:26:24.325Z,98735.28
2024-02-12T08:27:28.229Z,98746.84
2024-02-12T08:28:30.673Z,98746.56
2024-02-12T08:29:33.081Z,98747.06
2024-02-12T08:30:35.493Z,98748.41
2024-02-12T08:31:37.834Z,98749.25
2024-02-12T08:32:40.965Z,98755.00
2024-02-12T08:33:43.521Z,98750.63
2024-02-12T08:34:46.458Z,98753.88
2024-02-12T08:35:49.398Z,98767.38
2024-02-12T08:36:52.803Z,98765.16
2024-02-12T08:37:57.347Z,98762.94
2024-02-12T08:38:59.626Z,98753.53
2024-02-12T08:40:02.093Z,98763.16
2024-02-12T08:41:04.804Z,98768.41
2024-02-12T08:42:07.595Z,98765.34
2024-02-12T08:43:09.869Z,98767.00
2024-02-12T08:44:12.233Z,98766.38
2024-02-12T08:45:14.863Z,98766.09
2024-02-12T08:46:17.503Z,98764.19
2024-02-12T08:47:19.951Z,98771.03
2024-02-12T08:48:22.343Z,98767.97
2024-02-12T08:49:24.687Z,98772.91
2024-02-12T08:50:27.225Z,98774.56
2024-02-12T08:51:29.633Z,98766.78
2024-02-12T08:52:32.981Z,98770.91
2024-02-12T08:53:35.812Z,98778.91
2024-02-12T08:54:38.924Z,98771.44
2024-02-12T08:55:41.290Z,98785.75
2024-02-12T08:56:43.658Z,98779.09
2024-02-12T08:57:46.148Z,98781.59
2024-02-12T08:58:48.916Z,98777.69
2024-02-12T08:59:51.230Z,98780.19
2024-02-12T09:00:54.997Z,98784.28
2024-02-12T09:01:57.431Z,98780.69
2024-02-12T09:02:59.855Z,98791.44
2024-02-12T09:04:02.272Z,98793.88
2024-02-12T09:05:10.494Z,98791.97
2024-02-12T09:06:14.559Z,98789.72
2024-02-12T09:07:17.092Z,98786.97
2024-02-12T09:08:21.016Z,98789.44
2024-02-12T09:09:23.366Z,98791.59
2024-02-12T09:10:25.743Z,98797.94
2024-02-12T09:11:28.304Z,98797.94
2024-02-12T09:12:39.956Z,98796.53
2024-02-12T09:13:50.205Z,98796.53
2024-02-12T09:14:53.514Z,98793.50
2024-02-12T09:15:55.805Z,98804.22
2024-02-12T09:16:58.377Z,98794.84
2024-02-12T09:18:01.097Z,98805.56
2024-02-12T09:19:05.000Z,98801.72
2024-02-12T09:20:08.238Z,98810.78
2024-02-12T09:21:10.608Z,98804.16
2024-02-12T09:22:13.165Z,98806.63
2024-02-12T09:23:15.442Z,98813.78
2024-02-12T09:24:19.510Z,98798.84
2024-02-12T09:25:23.918Z,98802.16
2024-02-12T09:26:29.758Z,98804.09
2024-02-12T09:27:32.266Z,98801.03
2024-02-12T09:28:34.829Z,98801.59
2024-02-12T09:29:37.150Z,98811.50
2024-02-12T09:30:40.455Z,98813.16
2024-02-12T09:31:44.159Z,98806.22
2024-02-12T09:32:49.453Z,98811.44
2024-02-12T09:33:52.604Z,98815.03
2024-02-12T09:34:57.302Z,98810.88
2024-02-12T09:35:59.651Z,98816.09
2024-02-12T09:37:01.992Z,98811.06
2024-02-12T09:38:04.755Z,98817.13
2024-02-12T09:39:07.200Z,98819.09
2024-02-12T09:40:10.553Z,98815.72
2024-02-12T09:41:16.321Z,98818.97
2024-02-12T09:42:19.790Z,98822.59
2024-02-12T09:43:23.269Z,98827.50
2024-02-12T09:44:30.112Z,98829.44
2024-02-12T09:45:33.276Z,98821.97
2024-02-12T09:46:38.562Z,98836.81
2024-02-12T09:47:45.388Z,98828.84
2024-02-12T09:48:49.341Z,98823.88
2024-02-12T09:49:54.495Z,98828.28
2024-02-12T09:50:57.856Z,98828.28
2024-02-12T09:52:02.133Z,98834.00
2024-02-12T09:53:06.669Z,98825.72
2024-02-12T09:54:09.660Z,98821.03
2024-02-12T09:55:13.431Z,98832.56
2024-02-12T09:56:16.147Z,98831.16
2024-02-12T09:57:19.557Z,98827.28
2024-02-12T09:58:21.886Z,98832.50
2024-02-12T09:59:25.313Z,98829.16
2024-02-12T10:00:27.692Z,98836.84
2024-02-12T10:01:30.849Z,98835.72
2024-02-12T10:02:37.246Z,98836.78
2024-02-12T10:03:40.826Z,98827.38
2024-02-12T10:04:44.152Z,98839.78
2024-02-12T10:05:47.073Z,98833.94
2024-02-12T10:06:58.525Z,98833.06
2024-02-12T10:08:03.166Z,98834.97
2024-02-12T10:09:08.518Z,98830.81
2024-02-12T10:10:14.040Z,98826.63
2024-02-12T10:11:22.064Z,98836.56
2024-02-12T10:12:24.500Z,98834.28
2024-02-12T10:13:28.583Z,98841.16
2024-02-12T10:14:34.918Z,98834.22
2024-02-12T10:15:37.265Z,98833.09
2024-02-12T10:16:40.430Z,98837.22
2024-02-12T10:17:44.442Z,98836.63
2024-02-12T10:18:46.908Z,98834.38
2024-02-12T10:19:49.246Z,98837.97
2024-02-12T10:20:51.637Z,98829.06
2024-02-12T10:21:55.534Z,98842.56
2024-02-12T10:23:00.859Z,98829.28
2024-02-12T10:24:03.326Z,98835.63
2024-02-12T10:25:06.446Z,98839.19
2024-02-12T10:26:09.083Z,98834.22
2024-02-12T10:27:11.409Z,98842.19
2024-02-12T10:28:14.970Z,98841.59
2024-02-12T10:29:19.566Z,98841.31
2024-02-12T10:30:22.588Z,98842.63
2024-02-12T10:31:26.048Z,98842.63
2024-02-12T10:32:30.156Z,98838.75
2024-02-12T10:33:35.603Z,98844.47
2024-02-12T10:34:39.688Z,98840.59
2024-02-12T10:35:48.888Z,98843.91
2024-02-12T10:36:56.268Z,98847.16
2024-02-12T10:37:58.914Z,98847.16
2024-02-12T10:39:05.260Z,98850.47
2024-02-12T10:40:14.488Z,98854.25
2024-02-12T10:41:30.317Z,98860.91
2024-02-12T10:42:38.220Z,98857.81
2024-02-12T10:43:41.824Z,98855.91
2024-02-12T10:44:45.610Z,98858.66
2024-02-12T10:45:50.840Z,98863.06
2024-02-12T10:46:53.401Z,98858.66
2024-02-12T10:47:56.409Z,98857.25
2024-02-12T10:48:59.981Z,98866.34
2024-02-12T10:50:03.073Z,98856.72
2024-02-12T10:51:06.951Z,98855.59
2024-02-12T10:52:11.073Z,98864.69
2024-02-12T10:53:17.159Z,98871.56
2024-02-12T10:54:19.623Z,98863.56
2024-02-12T10:55:22.049Z,98860.50
2024-02-12T10:56:24.538Z,98862.47
2024-02-12T10:57:27.071Z,98865.75
2024-02-12T10:58:29.494Z,98859.69
2024-02-12T10:59:31.774Z,98860.50
2024-02-12T11:00:35.747Z,98866.88
2024-02-12T11:01:40.473Z,98868.53
2024-02-12T11:02:46.845Z,98864.63
2024-02-12T11:03:50.695Z,98865.47
2024-02-12T11:04:58.974Z,98866.28
2024-02-12T11:06:02.038Z,98870.16
2024-02-12T11:07:20.078Z,98871.81
2024-02-12T11:08:25.021Z,98875.69
2024-02-12T11:09:32.699Z,98877.34
2024-02-12T11:10:36.561Z,98869.06
2024-02-12T11:11:49.188Z,98874.59
2024-02-12T11:12:51.507Z,98876.22
2024-02-12T11:14:05.173Z,98874.28
2024-02-12T11:15:14.111Z,98881.44
2024-02-12T11:16:18.510Z,98881.97
2024-02-12T11:17:24.552Z,98876.16
2024-02-12T11:18:27.833Z,98880.25
2024-02-12T11:19:32.549Z,98881.59
2024-02-12T11:20:34.930Z,98874.94
2024-02-12T11:21:37.614Z,98881.81
2024-02-12T11:22:40.023Z,98883.97
2024-02-12T11:23:43.587Z,98888.88
2024-02-12T11:24:51.112Z,98890.75
2024-02-12T11:25:57.739Z,98893.19
2024-02-12T11:27:01.146Z,98887.34
2024-02-12T11:28:04.115Z,98888.69
2024-02-12T11:29:10.126Z,98888.09
2024-02-12T11:30:12.706Z,98891.38
2024-02-12T11:31:17.674Z,98891.91
2024-02-12T11:32:25.813Z,98892.38
2024-02-12T11:33:29.534Z,98888.50
2024-02-12T11:34:33.788Z,98889.03
2024-02-12T11:35:39.145Z,98896.22
2024-02-12T11:36:42.121Z,98895.91
2024-02-12T11:37:46.960Z,98897.84
2024-02-12T11:38:52.043Z,98891.81
2024-02-12T11:40:01.068Z,98899.47
2024-02-12T11:41:07.037Z,98895.59
2024-02-12T11:42:11.207Z,98898.38
2024-02-12T11:43:13.612Z,98895.59
2024-02-12T11:44:16.748Z,98901.13
2024-02-12T11:45:21.818Z,98907.19
2024-02-12T11:46:25.588Z,98905.22
2024-02-12T11:47:28.242Z,98905.22
2024-02-12T11:48:31.369Z,98907.19
2024-02-12T11:49:34.030Z,98908.00
2024-02-12T11:50:36.492Z,98917.94
2024-02-12T11:51:40.376Z,98913.22
2024-02-12T11:52:42.745Z,98908.81
2024-02-12T11:53:45.139Z,98914.34
2024-02-12T11:54:47.541Z,98902.47
2024-02-12T11:55:50.381Z,98913.53
2024-02-12T11:56:52.747Z,98907.19
2024-02-12T11:57:55.084Z,98914.34
2024-02-12T11:58:58.941Z,98920.72
2024-02-12T12:00:02.197Z,98911.56
2024-02-12T12:01:14.172Z,98915.19
2024-02-12T12:02:16.586Z,98917.09
2024-02-12T12:03:19.345Z,98916.31
2024-02-12T12:04:22.180Z,98918.75
2024-02-12T12:05:28.271Z,98913.22
2024-02-12T12:06:32.503Z,98917.94
2024-02-12T12:07:39.917Z,98912.09
2024-02-12T12:08:43.087Z,98914.88
2024-02-12T12:09:45.694Z,98914.03
2024-02-12T12:10:49.219Z,98914.88
2024-02-12T12:11:52.008Z,98912.59
2024-02-12T12:13:00.419Z,98914.56
2024-02-12T12:14:04.439Z,98910.66
2024-02-12T12:15:08.828Z,98915.09
2024-02-12T12:16:11.943Z,98920.91
2024-02-12T12:17:30.266Z,98921.44
2024-02-12T12:18:36.924Z,98919.78
2024-02-12T12:19:39.524Z,98925.84
2024-02-12T12:20:42.144Z,98925.84
2024-02-12T12:21:44.667Z,98923.06
2024-02-12T12:22:47.035Z,98915.91
2024-02-12T12:23:49.487Z,98920.31
2024-02-12T12:24:51.886Z,98921.97
2024-02-12T12:25:56.330Z,98921.97
2024-02-12T12:26:58.754Z,98923.56
2024-02-12T12:28:01.154Z,98929.09
2024-02-12T12:29:04.812Z,98925.22
2024-02-12T12:30:16.140Z,98932.41
2024-02-12T12:31:18.534Z,98936.81